sensor_id;sensor_type;location;lat;lon;timestamp;P1;durP1;ratioP1;P2;durP2;ratioP2
2538;SDS011;1280;49.760;9.664;2023-06-26T00:00:05;11.90;;;7.00;;
2538;SDS011;1280;49.760;9.664;2023-06-26T00:02:34;9.30;;;6.20;;
2538;SDS011;1280;49.760;9.664;2023-06-26T00:05:03;9.40;;;6.80;;
2538;SDS011;1280;49.760;9.664;2023-06-26T00:07:33;10.20;;;7.30;;
2538;SDS011;1280;49.760;9.664;2023-06-26T00:10:01;11.87;;;7.60;;
2538;SDS011;1280;49.760;9.664;2023-06-26T00:12:30;10.90;;;7.33;;
2538;SDS011;1280;49.760;9.664;2023-06-26T00:14:59;10.50;;;7.57;;
2538;SDS011;1280;49.760;9.664;2023-06-26T00:17:27;9.33;;;7.10;;
2538;SDS011;1280;49.760;9.664;2023-06-26T00:19:55;18.63;;;7.97;;
2538;SDS011;1280;49.760;9.664;2023-06-26T00:22:23;10.40;;;7.30;;
2538;SDS011;1280;49.760;9.664;2023-06-26T00:24:52;13.40;;;7.73;;
2538;SDS011;1280;49.760;9.664;2023-06-26T00:27:20;11.40;;;7.90;;
2538;SDS011;1280;49.760;9.664;2023-06-26T00:29:48;11.07;;;6.90;;
2538;SDS011;1280;49.760;9.664;2023-06-26T00:32:16;11.50;;;7.90;;
2538;SDS011;1280;49.760;9.664;2023-06-26T00:34:45;9.47;;;7.10;;
2538;SDS011;1280;49.760;9.664;2023-06-26T00:37:15;9.57;;;6.77;;
2538;SDS011;1280;49.760;9.664;2023-06-26T00:39:43;11.00;;;7.33;;
2538;SDS011;1280;49.760;9.664;2023-06-26T00:42:12;14.30;;;7.23;;
2538;SDS011;1280;49.760;9.664;2023-06-26T00:44:40;10.80;;;7.90;;
2538;SDS011;1280;49.760;9.664;2023-06-26T00:47:08;10.97;;;7.70;;
2538;SDS011;1280;49.760;9.664;2023-06-26T00:49:37;13.50;;;7.90;;
2538;SDS011;1280;49.760;9.664;2023-06-26T00:52:06;12.97;;;7.30;;
2538;SDS011;1280;49.760;9.664;2023-06-26T00:54:34;13.37;;;7.70;;
2538;SDS011;1280;49.760;9.664;2023-06-26T00:57:03;13.60;;;7.60;;
2538;SDS011;1280;49.760;9.664;2023-06-26T00:59:35;10.90;;;7.27;;
2538;SDS011;1280;49.760;9.664;2023-06-26T01:02:03;14.20;;;8.10;;
2538;SDS011;1280;49.760;9.664;2023-06-26T01:07:24;9.47;;;6.63;;
2538;SDS011;1280;49.760;9.664;2023-06-26T01:09:52;11.23;;;7.53;;
2538;SDS011;1280;49.760;9.664;2023-06-26T01:12:20;12.13;;;8.00;;
2538;SDS011;1280;49.760;9.664;2023-06-26T01:14:50;12.93;;;8.20;;
2538;SDS011;1280;49.760;9.664;2023-06-26T01:17:18;15.63;;;8.47;;
2538;SDS011;1280;49.760;9.664;2023-06-26T01:19:47;11.17;;;7.50;;
2538;SDS011;1280;49.760;9.664;2023-06-26T01:22:18;9.93;;;7.37;;
2538;SDS011;1280;49.760;9.664;2023-06-26T01:24:55;12.00;;;7.90;;
2538;SDS011;1280;49.760;9.664;2023-06-26T01:27:32;15.43;;;8.30;;
2538;SDS011;1280;49.760;9.664;2023-06-26T01:30:02;17.33;;;6.83;;
2538;SDS011;1280;49.760;9.664;2023-06-26T01:32:34;13.33;;;7.10;;
2538;SDS011;1280;49.760;9.664;2023-06-26T01:35:04;13.40;;;8.20;;
2538;SDS011;1280;49.760;9.664;2023-06-26T01:37:34;11.40;;;7.00;;
2538;SDS011;1280;49.760;9.664;2023-06-26T01:40:05;14.83;;;8.20;;
2538;SDS011;1280;49.760;9.664;2023-06-26T01:42:35;15.30;;;8.00;;
2538;SDS011;1280;49.760;9.664;2023-06-26T01:45:06;14.10;;;8.17;;
2538;SDS011;1280;49.760;9.664;2023-06-26T01:47:40;12.97;;;7.63;;
2538;SDS011;1280;49.760;9.664;2023-06-26T01:50:11;21.60;;;8.90;;
2538;SDS011;1280;49.760;9.664;2023-06-26T01:52:49;12.83;;;8.10;;
2538;SDS011;1280;49.760;9.664;2023-06-26T01:55:28;14.60;;;8.37;;
2538;SDS011;1280;49.760;9.664;2023-06-26T01:58:03;13.40;;;8.10;;
2538;SDS011;1280;49.760;9.664;2023-06-26T02:00:32;15.93;;;8.40;;
2538;SDS011;1280;49.760;9.664;2023-06-26T02:03:02;15.40;;;8.77;;
2538;SDS011;1280;49.760;9.664;2023-06-26T02:05:31;11.90;;;7.60;;
2538;SDS011;1280;49.760;9.664;2023-06-26T02:08:00;11.20;;;7.70;;
2538;SDS011;1280;49.760;9.664;2023-06-26T02:10:29;13.60;;;7.70;;
2538;SDS011;1280;49.760;9.664;2023-06-26T02:12:58;15.40;;;7.60;;
2538;SDS011;1280;49.760;9.664;2023-06-26T02:15:27;13.80;;;8.07;;
2538;SDS011;1280;49.760;9.664;2023-06-26T02:17:55;17.13;;;8.23;;
2538;SDS011;1280;49.760;9.664;2023-06-26T02:20:25;13.13;;;7.70;;
2538;SDS011;1280;49.760;9.664;2023-06-26T02:22:53;13.70;;;8.50;;
2538;SDS011;1280;49.760;9.664;2023-06-26T02:25:21;14.23;;;8.10;;
2538;SDS011;1280;49.760;9.664;2023-06-26T02:27:51;13.70;;;7.73;;
2538;SDS011;1280;49.760;9.664;2023-06-26T02:30:19;15.03;;;7.83;;
2538;SDS011;1280;49.760;9.664;2023-06-26T02:32:48;12.00;;;6.80;;
2538;SDS011;1280;49.760;9.664;2023-06-26T02:35:17;14.43;;;8.10;;
2538;SDS011;1280;49.760;9.664;2023-06-26T02:37:45;15.07;;;8.33;;
2538;SDS011;1280;49.760;9.664;2023-06-26T02:40:22;14.57;;;8.20;;
2538;SDS011;1280;49.760;9.664;2023-06-26T02:42:51;13.73;;;7.70;;
2538;SDS011;1280;49.760;9.664;2023-06-26T02:45:20;15.63;;;7.80;;
2538;SDS011;1280;49.760;9.664;2023-06-26T02:47:50;12.63;;;8.90;;
2538;SDS011;1280;49.760;9.664;2023-06-26T02:50:18;11.33;;;7.10;;
2538;SDS011;1280;49.760;9.664;2023-06-26T02:53:01;14.90;;;8.40;;
2538;SDS011;1280;49.760;9.664;2023-06-26T02:55:29;14.20;;;7.97;;
2538;SDS011;1280;49.760;9.664;2023-06-26T02:57:58;19.47;;;8.53;;
2538;SDS011;1280;49.760;9.664;2023-06-26T03:00:27;21.43;;;8.87;;
2538;SDS011;1280;49.760;9.664;2023-06-26T03:03:00;20.33;;;8.20;;
2538;SDS011;1280;49.760;9.664;2023-06-26T03:05:28;22.57;;;8.30;;
2538;SDS011;1280;49.760;9.664;2023-06-26T03:07:58;19.83;;;7.30;;
2538;SDS011;1280;49.760;9.664;2023-06-26T03:10:26;18.00;;;8.33;;
2538;SDS011;1280;49.760;9.664;2023-06-26T03:12:54;15.50;;;8.93;;
2538;SDS011;1280;49.760;9.664;2023-06-26T03:15:22;20.93;;;9.47;;
2538;SDS011;1280;49.760;9.664;2023-06-26T03:17:50;19.40;;;8.37;;
2538;SDS011;1280;49.760;9.664;2023-06-26T03:20:25;21.20;;;8.50;;
2538;SDS011;1280;49.760;9.664;2023-06-26T03:22:55;14.23;;;9.00;;
2538;SDS011;1280;49.760;9.664;2023-06-26T03:25:23;13.47;;;8.63;;
2538;SDS011;1280;49.760;9.664;2023-06-26T03:28:02;13.57;;;8.40;;
2538;SDS011;1280;49.760;9.664;2023-06-26T03:30:32;15.20;;;8.80;;
2538;SDS011;1280;49.760;9.664;2023-06-26T03:33:00;15.63;;;8.30;;
2538;SDS011;1280;49.760;9.664;2023-06-26T03:35:30;19.90;;;8.77;;
2538;SDS011;1280;49.760;9.664;2023-06-26T03:37:59;12.00;;;7.47;;
2538;SDS011;1280;49.760;9.664;2023-06-26T03:40:28;15.37;;;8.10;;
2538;SDS011;1280;49.760;9.664;2023-06-26T03:42:56;16.23;;;8.57;;
2538;SDS011;1280;49.760;9.664;2023-06-26T03:45:24;14.60;;;8.00;;
2538;SDS011;1280;49.760;9.664;2023-06-26T03:47:53;24.50;;;9.37;;
2538;SDS011;1280;49.760;9.664;2023-06-26T03:50:22;17.93;;;8.53;;
2538;SDS011;1280;49.760;9.664;2023-06-26T03:52:51;17.70;;;7.90;;
2538;SDS011;1280;49.760;9.664;2023-06-26T03:55:20;19.47;;;8.63;;
2538;SDS011;1280;49.760;9.664;2023-06-26T03:57:50;19.70;;;8.00;;
2538;SDS011;1280;49.760;9.664;2023-06-26T04:00:18;15.73;;;7.93;;
2538;SDS011;1280;49.760;9.664;2023-06-26T04:02:46;18.07;;;7.93;;
2538;SDS011;1280;49.760;9.664;2023-06-26T04:05:14;17.97;;;9.20;;
2538;SDS011;1280;49.760;9.664;2023-06-26T04:07:43;18.90;;;7.97;;
2538;SDS011;1280;49.760;9.664;2023-06-26T04:10:13;18.73;;;9.13;;
2538;SDS011;1280;49.760;9.664;2023-06-26T04:12:49;17.37;;;8.20;;
2538;SDS011;1280;49.760;9.664;2023-06-26T04:15:17;15.60;;;8.30;;
2538;SDS011;1280;49.760;9.664;2023-06-26T04:17:48;13.10;;;7.97;;
2538;SDS011;1280;49.760;9.664;2023-06-26T04:20:16;19.33;;;8.57;;
2538;SDS011;1280;49.760;9.664;2023-06-26T04:22:44;16.80;;;8.67;;
2538;SDS011;1280;49.760;9.664;2023-06-26T04:25:13;15.23;;;8.07;;
2538;SDS011;1280;49.760;9.664;2023-06-26T04:27:41;18.47;;;8.43;;
2538;SDS011;1280;49.760;9.664;2023-06-26T04:30:09;15.70;;;7.97;;
2538;SDS011;1280;49.760;9.664;2023-06-26T04:32:39;14.17;;;7.80;;
2538;SDS011;1280;49.760;9.664;2023-06-26T04:35:07;13.80;;;7.73;;
2538;SDS011;1280;49.760;9.664;2023-06-26T04:37:36;24.13;;;9.00;;
2538;SDS011;1280;49.760;9.664;2023-06-26T04:40:05;27.63;;;8.67;;
2538;SDS011;1280;49.760;9.664;2023-06-26T04:42:37;22.70;;;8.10;;
2538;SDS011;1280;49.760;9.664;2023-06-26T04:45:07;16.83;;;7.90;;
2538;SDS011;1280;49.760;9.664;2023-06-26T04:47:35;25.33;;;9.13;;
2538;SDS011;1280;49.760;9.664;2023-06-26T04:50:04;31.27;;;9.20;;
2538;SDS011;1280;49.760;9.664;2023-06-26T04:52:32;17.40;;;8.73;;
2538;SDS011;1280;49.760;9.664;2023-06-26T04:55:00;15.07;;;9.07;;
2538;SDS011;1280;49.760;9.664;2023-06-26T04:57:28;16.57;;;8.17;;
2538;SDS011;1280;49.760;9.664;2023-06-26T04:59:58;19.33;;;8.30;;
2538;SDS011;1280;49.760;9.664;2023-06-26T05:02:25;22.67;;;9.00;;
2538;SDS011;1280;49.760;9.664;2023-06-26T05:04:54;16.33;;;8.60;;
2538;SDS011;1280;49.760;9.664;2023-06-26T05:07:22;18.77;;;8.60;;
2538;SDS011;1280;49.760;9.664;2023-06-26T05:09:50;12.33;;;8.17;;
2538;SDS011;1280;49.760;9.664;2023-06-26T05:12:18;16.80;;;9.10;;
2538;SDS011;1280;49.760;9.664;2023-06-26T05:14:46;13.60;;;8.93;;
2538;SDS011;1280;49.760;9.664;2023-06-26T05:17:16;14.37;;;9.30;;
2538;SDS011;1280;49.760;9.664;2023-06-26T05:19:44;18.60;;;9.30;;
2538;SDS011;1280;49.760;9.664;2023-06-26T05:22:12;15.23;;;9.43;;
2538;SDS011;1280;49.760;9.664;2023-06-26T05:24:42;17.33;;;9.20;;
2538;SDS011;1280;49.760;9.664;2023-06-26T05:27:14;14.37;;;9.67;;
2538;SDS011;1280;49.760;9.664;2023-06-26T05:29:48;16.07;;;9.30;;
2538;SDS011;1280;49.760;9.664;2023-06-26T05:32:18;14.23;;;10.27;;
2538;SDS011;1280;49.760;9.664;2023-06-26T05:34:46;17.93;;;10.47;;
2538;SDS011;1280;49.760;9.664;2023-06-26T05:37:17;12.77;;;9.80;;
2538;SDS011;1280;49.760;9.664;2023-06-26T05:39:48;13.60;;;9.27;;
2538;SDS011;1280;49.760;9.664;2023-06-26T05:42:17;14.67;;;9.57;;
2538;SDS011;1280;49.760;9.664;2023-06-26T05:44:45;14.80;;;10.67;;
2538;SDS011;1280;49.760;9.664;2023-06-26T05:47:13;13.80;;;9.60;;
2538;SDS011;1280;49.760;9.664;2023-06-26T05:49:42;12.37;;;9.87;;
2538;SDS011;1280;49.760;9.664;2023-06-26T05:52:11;13.33;;;8.93;;
2538;SDS011;1280;49.760;9.664;2023-06-26T05:54:40;13.80;;;9.50;;
2538;SDS011;1280;49.760;9.664;2023-06-26T05:57:08;12.30;;;9.50;;
2538;SDS011;1280;49.760;9.664;2023-06-26T05:59:36;14.50;;;9.50;;
2538;SDS011;1280;49.760;9.664;2023-06-26T06:02:08;15.83;;;9.80;;
2538;SDS011;1280;49.760;9.664;2023-06-26T06:04:36;12.63;;;9.10;;
2538;SDS011;1280;49.760;9.664;2023-06-26T06:07:05;13.13;;;9.50;;
2538;SDS011;1280;49.760;9.664;2023-06-26T06:09:33;13.10;;;9.43;;
2538;SDS011;1280;49.760;9.664;2023-06-26T06:12:01;14.00;;;10.17;;
2538;SDS011;1280;49.760;9.664;2023-06-26T06:14:30;12.17;;;9.10;;
2538;SDS011;1280;49.760;9.664;2023-06-26T06:16:58;16.97;;;11.47;;
2538;SDS011;1280;49.760;9.664;2023-06-26T06:19:26;14.00;;;10.93;;
2538;SDS011;1280;49.760;9.664;2023-06-26T06:21:54;13.07;;;8.83;;
2538;SDS011;1280;49.760;9.664;2023-06-26T06:24:23;12.43;;;9.50;;
2538;SDS011;1280;49.760;9.664;2023-06-26T06:26:51;11.87;;;8.90;;
2538;SDS011;1280;49.760;9.664;2023-06-26T06:29:19;12.40;;;9.47;;
2538;SDS011;1280;49.760;9.664;2023-06-26T06:31:53;13.40;;;9.87;;
2538;SDS011;1280;49.760;9.664;2023-06-26T06:34:21;12.50;;;9.87;;
2538;SDS011;1280;49.760;9.664;2023-06-26T06:37:20;11.43;;;9.00;;
2538;SDS011;1280;49.760;9.664;2023-06-26T06:39:39;17.67;;;9.87;;
2538;SDS011;1280;49.760;9.664;2023-06-26T06:42:07;13.57;;;9.00;;
2538;SDS011;1280;49.760;9.664;2023-06-26T06:44:35;14.57;;;9.60;;
2538;SDS011;1280;49.760;9.664;2023-06-26T06:47:03;14.90;;;10.30;;
2538;SDS011;1280;49.760;9.664;2023-06-26T06:49:31;13.70;;;9.33;;
2538;SDS011;1280;49.760;9.664;2023-06-26T06:51:59;12.53;;;9.10;;
2538;SDS011;1280;49.760;9.664;2023-06-26T06:54:28;13.37;;;9.40;;
2538;SDS011;1280;49.760;9.664;2023-06-26T06:56:57;13.13;;;9.67;;
2538;SDS011;1280;49.760;9.664;2023-06-26T06:59:25;11.63;;;9.10;;
2538;SDS011;1280;49.760;9.664;2023-06-26T07:01:54;13.43;;;9.30;;
2538;SDS011;1280;49.760;9.664;2023-06-26T07:04:22;15.50;;;9.90;;
2538;SDS011;1280;49.760;9.664;2023-06-26T07:06:50;17.83;;;9.80;;
2538;SDS011;1280;49.760;9.664;2023-06-26T07:09:19;12.50;;;9.13;;
2538;SDS011;1280;49.760;9.664;2023-06-26T07:11:48;13.77;;;10.40;;
2538;SDS011;1280;49.760;9.664;2023-06-26T07:14:19;12.30;;;9.43;;
2538;SDS011;1280;49.760;9.664;2023-06-26T07:16:48;11.90;;;9.47;;
2538;SDS011;1280;49.760;9.664;2023-06-26T07:19:17;12.53;;;9.50;;
2538;SDS011;1280;49.760;9.664;2023-06-26T07:21:45;12.47;;;9.57;;
2538;SDS011;1280;49.760;9.664;2023-06-26T07:24:13;12.70;;;9.23;;
2538;SDS011;1280;49.760;9.664;2023-06-26T07:26:41;12.83;;;8.97;;
2538;SDS011;1280;49.760;9.664;2023-06-26T07:29:13;13.43;;;9.53;;
2538;SDS011;1280;49.760;9.664;2023-06-26T07:31:42;12.43;;;9.20;;
2538;SDS011;1280;49.760;9.664;2023-06-26T07:34:12;11.77;;;9.03;;
2538;SDS011;1280;49.760;9.664;2023-06-26T07:36:40;14.17;;;9.50;;
2538;SDS011;1280;49.760;9.664;2023-06-26T07:39:08;12.27;;;10.07;;
2538;SDS011;1280;49.760;9.664;2023-06-26T07:41:40;15.37;;;9.80;;
2538;SDS011;1280;49.760;9.664;2023-06-26T07:44:08;12.40;;;8.63;;
2538;SDS011;1280;49.760;9.664;2023-06-26T07:46:36;12.07;;;9.20;;
2538;SDS011;1280;49.760;9.664;2023-06-26T07:49:05;13.47;;;9.37;;
2538;SDS011;1280;49.760;9.664;2023-06-26T07:51:33;13.83;;;8.50;;
2538;SDS011;1280;49.760;9.664;2023-06-26T07:54:01;12.77;;;8.40;;
2538;SDS011;1280;49.760;9.664;2023-06-26T07:56:29;17.20;;;10.70;;
2538;SDS011;1280;49.760;9.664;2023-06-26T07:58:57;13.73;;;9.47;;
2538;SDS011;1280;49.760;9.664;2023-06-26T08:01:26;16.70;;;10.50;;
2538;SDS011;1280;49.760;9.664;2023-06-26T08:03:54;14.80;;;9.77;;
2538;SDS011;1280;49.760;9.664;2023-06-26T08:06:24;12.10;;;9.43;;
2538;SDS011;1280;49.760;9.664;2023-06-26T08:08:52;12.83;;;9.17;;
2538;SDS011;1280;49.760;9.664;2023-06-26T08:11:20;14.13;;;8.40;;
2538;SDS011;1280;49.760;9.664;2023-06-26T08:13:48;13.67;;;8.70;;
2538;SDS011;1280;49.760;9.664;2023-06-26T08:16:16;11.20;;;9.03;;
2538;SDS011;1280;49.760;9.664;2023-06-26T08:18:44;11.70;;;9.10;;
2538;SDS011;1280;49.760;9.664;2023-06-26T08:21:12;13.90;;;9.40;;
2538;SDS011;1280;49.760;9.664;2023-06-26T08:23:41;16.40;;;10.03;;
2538;SDS011;1280;49.760;9.664;2023-06-26T08:26:09;13.73;;;8.60;;
2538;SDS011;1280;49.760;9.664;2023-06-26T08:28:37;13.53;;;8.93;;
2538;SDS011;1280;49.760;9.664;2023-06-26T08:31:05;11.47;;;8.23;;
2538;SDS011;1280;49.760;9.664;2023-06-26T08:33:33;12.17;;;8.70;;
2538;SDS011;1280;49.760;9.664;2023-06-26T08:36:01;13.80;;;9.07;;
2538;SDS011;1280;49.760;9.664;2023-06-26T08:38:29;11.43;;;8.63;;
2538;SDS011;1280;49.760;9.664;2023-06-26T08:40:59;12.30;;;9.33;;
2538;SDS011;1280;49.760;9.664;2023-06-26T08:43:27;12.27;;;8.30;;
2538;SDS011;1280;49.760;9.664;2023-06-26T08:45:55;11.90;;;8.90;;
2538;SDS011;1280;49.760;9.664;2023-06-26T08:48:24;12.50;;;9.23;;
2538;SDS011;1280;49.760;9.664;2023-06-26T08:50:53;13.23;;;8.60;;
2538;SDS011;1280;49.760;9.664;2023-06-26T08:53:23;11.33;;;8.27;;
2538;SDS011;1280;49.760;9.664;2023-06-26T08:56:02;12.77;;;8.90;;
2538;SDS011;1280;49.760;9.664;2023-06-26T08:58:30;13.00;;;8.70;;
2538;SDS011;1280;49.760;9.664;2023-06-26T09:00:59;15.07;;;9.60;;
2538;SDS011;1280;49.760;9.664;2023-06-26T09:03:28;12.77;;;9.10;;
2538;SDS011;1280;49.760;9.664;2023-06-26T09:05:58;11.37;;;9.03;;
2538;SDS011;1280;49.760;9.664;2023-06-26T09:08:26;13.73;;;9.07;;
2538;SDS011;1280;49.760;9.664;2023-06-26T09:10:54;12.57;;;9.27;;
2538;SDS011;1280;49.760;9.664;2023-06-26T09:13:23;12.43;;;7.73;;
2538;SDS011;1280;49.760;9.664;2023-06-26T09:16:34;12.30;;;8.60;;
2538;SDS011;1280;49.760;9.664;2023-06-26T09:18:44;13.57;;;9.20;;
2538;SDS011;1280;49.760;9.664;2023-06-26T09:21:13;11.63;;;8.30;;
2538;SDS011;1280;49.760;9.664;2023-06-26T09:23:42;12.53;;;8.70;;
2538;SDS011;1280;49.760;9.664;2023-06-26T09:26:10;13.57;;;8.50;;
2538;SDS011;1280;49.760;9.664;2023-06-26T09:28:41;11.27;;;7.90;;
2538;SDS011;1280;49.760;9.664;2023-06-26T09:31:09;10.90;;;8.20;;
2538;SDS011;1280;49.760;9.664;2023-06-26T09:33:39;11.30;;;8.20;;
2538;SDS011;1280;49.760;9.664;2023-06-26T09:36:09;13.27;;;7.70;;
2538;SDS011;1280;49.760;9.664;2023-06-26T09:38:47;10.90;;;8.13;;
2538;SDS011;1280;49.760;9.664;2023-06-26T09:41:15;13.03;;;8.27;;
2538;SDS011;1280;49.760;9.664;2023-06-26T09:43:48;12.50;;;7.60;;
2538;SDS011;1280;49.760;9.664;2023-06-26T09:46:17;12.00;;;7.80;;
2538;SDS011;1280;49.760;9.664;2023-06-26T09:48:57;11.83;;;7.30;;
2538;SDS011;1280;49.760;9.664;2023-06-26T09:51:26;12.10;;;7.60;;
2538;SDS011;1280;49.760;9.664;2023-06-26T09:53:57;9.90;;;6.50;;
2538;SDS011;1280;49.760;9.664;2023-06-26T09:56:24;10.67;;;7.20;;
2538;SDS011;1280;49.760;9.664;2023-06-26T09:58:56;10.27;;;6.97;;
2538;SDS011;1280;49.760;9.664;2023-06-26T10:01:25;10.67;;;6.90;;
2538;SDS011;1280;49.760;9.664;2023-06-26T10:03:54;9.40;;;6.50;;
2538;SDS011;1280;49.760;9.664;2023-06-26T10:06:24;9.30;;;6.43;;
2538;SDS011;1280;49.760;9.664;2023-06-26T10:08:55;10.60;;;6.67;;
2538;SDS011;1280;49.760;9.664;2023-06-26T10:11:27;11.83;;;7.30;;
2538;SDS011;1280;49.760;9.664;2023-06-26T10:14:01;11.27;;;7.47;;
2538;SDS011;1280;49.760;9.664;2023-06-26T10:16:43;10.60;;;7.07;;
2538;SDS011;1280;49.760;9.664;2023-06-26T10:19:13;10.10;;;7.47;;
2538;SDS011;1280;49.760;9.664;2023-06-26T10:21:45;10.87;;;7.63;;
2538;SDS011;1280;49.760;9.664;2023-06-26T10:24:13;10.63;;;7.33;;
2538;SDS011;1280;49.760;9.664;2023-06-26T10:26:42;10.93;;;7.73;;
2538;SDS011;1280;49.760;9.664;2023-06-26T10:29:14;10.80;;;8.30;;
2538;SDS011;1280;49.760;9.664;2023-06-26T10:31:45;11.63;;;8.53;;
2538;SDS011;1280;49.760;9.664;2023-06-26T10:34:16;12.17;;;8.20;;
2538;SDS011;1280;49.760;9.664;2023-06-26T10:36:45;12.50;;;9.10;;
2538;SDS011;1280;49.760;9.664;2023-06-26T10:39:14;12.10;;;7.93;;
2538;SDS011;1280;49.760;9.664;2023-06-26T10:41:42;11.10;;;7.60;;
2538;SDS011;1280;49.760;9.664;2023-06-26T10:44:30;10.50;;;7.77;;
2538;SDS011;1280;49.760;9.664;2023-06-26T10:47:08;11.83;;;8.00;;
2538;SDS011;1280;49.760;9.664;2023-06-26T10:49:36;10.40;;;7.20;;
2538;SDS011;1280;49.760;9.664;2023-06-26T10:52:05;13.10;;;7.47;;
2538;SDS011;1280;49.760;9.664;2023-06-26T10:54:34;10.90;;;6.93;;
2538;SDS011;1280;49.760;9.664;2023-06-26T10:57:04;13.93;;;8.17;;
2538;SDS011;1280;49.760;9.664;2023-06-26T10:59:38;9.97;;;6.70;;
2538;SDS011;1280;49.760;9.664;2023-06-26T11:02:07;9.33;;;7.17;;
2538;SDS011;1280;49.760;9.664;2023-06-26T11:04:37;9.43;;;6.27;;
2538;SDS011;1280;49.760;9.664;2023-06-26T11:07:17;8.63;;;6.27;;
2538;SDS011;1280;49.760;9.664;2023-06-26T11:09:56;10.70;;;6.77;;
2538;SDS011;1280;49.760;9.664;2023-06-26T11:12:35;11.87;;;7.07;;
2538;SDS011;1280;49.760;9.664;2023-06-26T11:23:57;10.27;;;6.53;;
2538;SDS011;1280;49.760;9.664;2023-06-26T11:26:27;8.73;;;6.47;;
2538;SDS011;1280;49.760;9.664;2023-06-26T11:28:55;10.00;;;7.37;;
2538;SDS011;1280;49.760;9.664;2023-06-26T11:31:27;16.40;;;6.43;;
2538;SDS011;1280;49.760;9.664;2023-06-26T11:33:57;12.10;;;7.60;;
2538;SDS011;1280;49.760;9.664;2023-06-26T11:36:26;10.00;;;7.30;;
2538;SDS011;1280;49.760;9.664;2023-06-26T11:38:55;13.23;;;7.90;;
2538;SDS011;1280;49.760;9.664;2023-06-26T11:41:26;9.70;;;7.17;;
2538;SDS011;1280;49.760;9.664;2023-06-26T11:51:54;12.67;;;8.77;;
2538;SDS011;1280;49.760;9.664;2023-06-26T11:54:27;13.10;;;9.30;;
2538;SDS011;1280;49.760;9.664;2023-06-26T11:56:56;11.10;;;9.00;;
2538;SDS011;1280;49.760;9.664;2023-06-26T11:59:32;12.13;;;9.40;;
2538;SDS011;1280;49.760;9.664;2023-06-26T12:02:04;12.97;;;9.10;;
2538;SDS011;1280;49.760;9.664;2023-06-26T12:04:34;14.10;;;9.10;;
2538;SDS011;1280;49.760;9.664;2023-06-26T12:07:03;11.63;;;9.60;;
2538;SDS011;1280;49.760;9.664;2023-06-26T12:09:39;12.90;;;9.13;;
2538;SDS011;1280;49.760;9.664;2023-06-26T12:12:08;12.47;;;9.37;;
2538;SDS011;1280;49.760;9.664;2023-06-26T12:14:37;12.27;;;9.17;;
2538;SDS011;1280;49.760;9.664;2023-06-26T12:17:08;13.67;;;10.20;;
2538;SDS011;1280;49.760;9.664;2023-06-26T12:19:37;13.37;;;10.07;;
2538;SDS011;1280;49.760;9.664;2023-06-26T12:22:06;12.10;;;9.53;;
2538;SDS011;1280;49.760;9.664;2023-06-26T12:24:35;13.57;;;9.27;;
2538;SDS011;1280;49.760;9.664;2023-06-26T12:27:08;13.37;;;10.20;;
2538;SDS011;1280;49.760;9.664;2023-06-26T12:29:38;10.93;;;9.23;;
2538;SDS011;1280;49.760;9.664;2023-06-26T12:32:10;13.23;;;9.37;;
2538;SDS011;1280;49.760;9.664;2023-06-26T12:34:39;11.90;;;9.20;;
2538;SDS011;1280;49.760;9.664;2023-06-26T12:37:08;17.37;;;9.53;;
2538;SDS011;1280;49.760;9.664;2023-06-26T12:39:47;12.97;;;9.97;;
2538;SDS011;1280;49.760;9.664;2023-06-26T12:42:18;13.97;;;8.57;;
2538;SDS011;1280;49.760;9.664;2023-06-26T12:44:46;12.30;;;9.10;;
2538;SDS011;1280;49.760;9.664;2023-06-26T12:47:16;12.90;;;9.30;;
2538;SDS011;1280;49.760;9.664;2023-06-26T12:49:50;14.67;;;9.00;;
2538;SDS011;1280;49.760;9.664;2023-06-26T12:52:21;11.93;;;8.60;;
2538;SDS011;1280;49.760;9.664;2023-06-26T12:54:51;12.43;;;9.23;;
2538;SDS011;1280;49.760;9.664;2023-06-26T12:57:22;11.27;;;9.20;;
2538;SDS011;1280;49.760;9.664;2023-06-26T12:59:50;12.03;;;8.70;;
2538;SDS011;1280;49.760;9.664;2023-06-26T13:02:19;12.90;;;8.83;;
2538;SDS011;1280;49.760;9.664;2023-06-26T13:04:47;13.80;;;8.47;;
2538;SDS011;1280;49.760;9.664;2023-06-26T13:07:15;12.80;;;8.33;;
2538;SDS011;1280;49.760;9.664;2023-06-26T13:09:43;11.10;;;8.50;;
2538;SDS011;1280;49.760;9.664;2023-06-26T13:12:12;11.60;;;8.20;;
2538;SDS011;1280;49.760;9.664;2023-06-26T13:14:41;10.53;;;8.30;;
2538;SDS011;1280;49.760;9.664;2023-06-26T13:17:10;15.13;;;8.87;;
2538;SDS011;1280;49.760;9.664;2023-06-26T13:19:38;12.53;;;9.03;;
2538;SDS011;1280;49.760;9.664;2023-06-26T13:22:06;12.43;;;8.23;;
2538;SDS011;1280;49.760;9.664;2023-06-26T13:24:34;12.47;;;8.33;;
2538;SDS011;1280;49.760;9.664;2023-06-26T13:27:02;10.30;;;8.17;;
2538;SDS011;1280;49.760;9.664;2023-06-26T13:29:31;11.57;;;8.37;;
2538;SDS011;1280;49.760;9.664;2023-06-26T13:32:01;11.23;;;8.70;;
2538;SDS011;1280;49.760;9.664;2023-06-26T13:34:29;16.83;;;8.83;;
2538;SDS011;1280;49.760;9.664;2023-06-26T13:36:57;10.47;;;7.93;;
2538;SDS011;1280;49.760;9.664;2023-06-26T13:39:26;12.57;;;7.60;;
2538;SDS011;1280;49.760;9.664;2023-06-26T13:41:54;11.77;;;7.97;;
2538;SDS011;1280;49.760;9.664;2023-06-26T13:44:23;12.80;;;8.53;;
2538;SDS011;1280;49.760;9.664;2023-06-26T13:47:08;11.17;;;8.50;;
2538;SDS011;1280;49.760;9.664;2023-06-26T13:49:37;11.57;;;8.73;;
2538;SDS011;1280;49.760;9.664;2023-06-26T13:52:05;12.70;;;8.70;;
2538;SDS011;1280;49.760;9.664;2023-06-26T13:54:34;11.10;;;7.13;;
2538;SDS011;1280;49.760;9.664;2023-06-26T13:57:03;10.00;;;7.00;;
2538;SDS011;1280;49.760;9.664;2023-06-26T13:59:32;14.80;;;7.63;;
2538;SDS011;1280;49.760;9.664;2023-06-26T14:02:00;13.83;;;7.93;;
2538;SDS011;1280;49.760;9.664;2023-06-26T14:04:30;12.40;;;7.97;;
2538;SDS011;1280;49.760;9.664;2023-06-26T14:06:58;12.53;;;7.53;;
2538;SDS011;1280;49.760;9.664;2023-06-26T14:09:26;12.47;;;7.40;;
2538;SDS011;1280;49.760;9.664;2023-06-26T14:11:54;10.20;;;8.10;;
2538;SDS011;1280;49.760;9.664;2023-06-26T14:15:00;11.07;;;7.47;;
2538;SDS011;1280;49.760;9.664;2023-06-26T14:17:10;10.80;;;7.13;;
2538;SDS011;1280;49.760;9.664;2023-06-26T14:19:44;16.20;;;7.03;;
2538;SDS011;1280;49.760;9.664;2023-06-26T14:22:12;10.87;;;7.30;;
2538;SDS011;1280;49.760;9.664;2023-06-26T14:24:40;13.03;;;7.73;;
2538;SDS011;1280;49.760;9.664;2023-06-26T14:27:09;11.83;;;7.17;;
2538;SDS011;1280;49.760;9.664;2023-06-26T14:29:37;10.50;;;7.40;;
2538;SDS011;1280;49.760;9.664;2023-06-26T14:32:05;14.23;;;7.50;;
2538;SDS011;1280;49.760;9.664;2023-06-26T14:34:34;10.13;;;7.60;;
2538;SDS011;1280;49.760;9.664;2023-06-26T14:37:03;11.53;;;7.80;;
2538;SDS011;1280;49.760;9.664;2023-06-26T14:39:32;13.90;;;8.07;;
2538;SDS011;1280;49.760;9.664;2023-06-26T14:42:00;10.57;;;7.23;;
2538;SDS011;1280;49.760;9.664;2023-06-26T14:44:28;10.00;;;7.10;;
2538;SDS011;1280;49.760;9.664;2023-06-26T14:46:57;9.90;;;6.90;;
2538;SDS011;1280;49.760;9.664;2023-06-26T14:49:25;11.30;;;7.40;;
2538;SDS011;1280;49.760;9.664;2023-06-26T14:51:53;12.03;;;7.53;;
2538;SDS011;1280;49.760;9.664;2023-06-26T14:54:22;10.70;;;7.10;;
2538;SDS011;1280;49.760;9.664;2023-06-26T14:56:50;11.33;;;6.93;;
2538;SDS011;1280;49.760;9.664;2023-06-26T14:59:18;10.00;;;7.27;;
2538;SDS011;1280;49.760;9.664;2023-06-26T15:01:46;16.63;;;8.10;;
2538;SDS011;1280;49.760;9.664;2023-06-26T15:04:15;10.93;;;8.00;;
2538;SDS011;1280;49.760;9.664;2023-06-26T15:06:43;12.27;;;7.20;;
2538;SDS011;1280;49.760;9.664;2023-06-26T15:09:12;12.93;;;8.17;;
2538;SDS011;1280;49.760;9.664;2023-06-26T15:11:41;13.43;;;7.23;;
2538;SDS011;1280;49.760;9.664;2023-06-26T15:14:09;10.47;;;7.43;;
2538;SDS011;1280;49.760;9.664;2023-06-26T15:16:37;15.53;;;8.00;;
2538;SDS011;1280;49.760;9.664;2023-06-26T15:19:05;13.83;;;8.10;;
2538;SDS011;1280;49.760;9.664;2023-06-26T15:21:34;11.40;;;7.20;;
2538;SDS011;1280;49.760;9.664;2023-06-26T15:24:03;16.53;;;7.30;;
2538;SDS011;1280;49.760;9.664;2023-06-26T15:26:33;15.20;;;7.37;;
2538;SDS011;1280;49.760;9.664;2023-06-26T15:29:03;13.00;;;7.33;;
2538;SDS011;1280;49.760;9.664;2023-06-26T15:31:31;14.00;;;7.80;;
2538;SDS011;1280;49.760;9.664;2023-06-26T15:33:59;15.97;;;8.50;;